createdAt,value
2022-07-31T00:00:20.068Z,24.08
2022-07-31T00:05:12.644Z,24.09
2022-07-31T00:10:05.194Z,24.06
2022-07-31T00:14:57.668Z,24.03
2022-07-31T00:19:50.364Z,24
2022-07-31T00:24:42.690Z,24.02
2022-07-31T00:29:35.119Z,24
2022-07-31T00:34:27.442Z,24.01
2022-07-31T00:39:20.211Z,23.96
2022-07-31T00:44:12.758Z,23.97
2022-07-31T00:49:05.186Z,23.96
2022-07-31T00:53:57.491Z,23.93
2022-07-31T00:58:50.037Z,23.92
2022-07-31T01:03:42.276Z,23.9
2022-07-31T01:08:35.085Z,23.87
2022-07-31T01:13:27.591Z,23.85
2022-07-31T01:18:20.215Z,23.88
2022-07-31T01:23:12.731Z,23.86
2022-07-31T01:28:05.268Z,23.84
2022-07-31T01:32:58.252Z,23.81
2022-07-31T01:37:50.861Z,23.84
2022-07-31T01:42:43.290Z,23.8
2022-07-31T01:47:35.752Z,23.77
2022-07-31T01:52:28.255Z,23.77
2022-07-31T01:57:20.794Z,23.79
2022-07-31T02:02:13.348Z,23.78
2022-07-31T02:07:05.792Z,23.77
2022-07-31T02:11:58.425Z,23.74
2022-07-31T02:16:50.983Z,23.72
2022-07-31T02:21:43.743Z,23.75
2022-07-31T02:31:28.838Z,23.7
2022-07-31T02:36:21.150Z,23.69
2022-07-31T02:41:13.599Z,23.68
2022-07-31T02:46:06.097Z,23.68
2022-07-31T02:50:58.449Z,23.67
2022-07-31T02:55:50.897Z,23.69
2022-07-31T03:00:43.475Z,23.67
2022-07-31T03:05:35.891Z,23.63
2022-07-31T03:10:29.439Z,23.65
2022-07-31T03:15:21.843Z,23.61
2022-07-31T03:20:14.470Z,23.61
2022-07-31T03:25:06.989Z,23.61
2022-07-31T03:29:59.621Z,23.6
2022-07-31T03:34:52.105Z,23.59
2022-07-31T03:39:44.607Z,23.58
2022-07-31T03:44:36.890Z,23.54
2022-07-31T03:49:29.446Z,23.54
2022-07-31T03:54:21.584Z,23.54
2022-07-31T03:59:14.328Z,23.52
2022-07-31T04:04:06.895Z,23.52
2022-07-31T04:08:59.407Z,23.52
2022-07-31T04:13:52.026Z,23.52
2022-07-31T04:18:48.526Z,23.51
2022-07-31T04:23:37.318Z,23.5
2022-07-31T04:28:30.055Z,23.48
2022-07-31T04:33:22.577Z,23.46
2022-07-31T04:38:15.237Z,23.46
2022-07-31T04:43:07.887Z,23.16
2022-07-31T04:47:59.712Z,22.72
2022-07-31T04:52:52.072Z,22.48
2022-07-31T04:57:44.295Z,22.46
2022-07-31T05:02:36.734Z,22.37
2022-07-31T05:07:29.244Z,22.49
2022-07-31T05:12:21.312Z,22.08
2022-07-31T05:17:13.286Z,21.91
2022-07-31T05:22:06.199Z,21.88
2022-07-31T05:26:58.292Z,21.92
2022-07-31T05:31:59.448Z,21.7
2022-07-31T05:36:42.706Z,21.46
2022-07-31T05:41:34.754Z,20.6
2022-07-31T05:46:27.387Z,21.47
2022-07-31T05:51:19.332Z,21.32
2022-07-31T05:56:12.543Z,21.58
2022-07-31T06:01:04.927Z,21.59
2022-07-31T06:05:57.081Z,21.42
2022-07-31T06:10:49.651Z,21.64
2022-07-31T06:15:42.273Z,20.83
2022-07-31T06:20:34.292Z,21.16
2022-07-31T06:25:26.461Z,20.51
2022-07-31T06:30:18.888Z,20.39
2022-07-31T06:35:11.200Z,20.84
2022-07-31T06:40:03.535Z,20.35
2022-07-31T06:44:55.451Z,20.49
2022-07-31T06:49:48.060Z,20.63
2022-07-31T06:54:40.278Z,20.53
2022-07-31T07:04:20.254Z,20.66
2022-07-31T07:09:14.043Z,20.63
2022-07-31T07:14:06.723Z,20.46
2022-07-31T07:18:59.429Z,20.57
2022-07-31T07:23:52.498Z,21.18
2022-07-31T07:28:44.726Z,20.48
2022-07-31T07:33:40.284Z,21.28
2022-07-31T07:38:30.252Z,21.26
2022-07-31T07:43:23.176Z,21.48
2022-07-31T07:46:56.379Z,21.37
2022-07-31T07:48:07.356Z,21.33
2022-07-31T07:48:34.897Z,21.38
2022-07-31T07:53:27.472Z,21.61
2022-07-31T07:58:20.141Z,21.58
2022-07-31T08:03:47.897Z,21.91
2022-07-31T08:08:06.030Z,22.23
2022-07-31T08:12:58.859Z,22.39
2022-07-31T08:17:51.389Z,22.48
2022-07-31T08:22:44.318Z,22.53
2022-07-31T08:27:40.053Z,22.61
2022-07-31T08:32:29.877Z,22.65
2022-07-31T08:37:51.456Z,22.68
2022-07-31T08:47:07.351Z,22.82
2022-07-31T08:56:52.635Z,22.92
2022-07-31T09:01:45.117Z,22.97
2022-07-31T09:06:37.594Z,22.99
2022-07-31T09:11:30.084Z,23.03
2022-07-31T09:16:24.336Z,23.06
2022-07-31T09:21:15.261Z,23.11
2022-07-31T09:26:07.760Z,23.17
2022-07-31T09:31:00.334Z,23.21
2022-07-31T09:35:52.931Z,23.26
2022-07-31T09:40:55.213Z,23.32
2022-07-31T09:45:37.914Z,23.37
2022-07-31T09:50:30.502Z,23.41
2022-07-31T09:55:23.344Z,23.48
2022-07-31T10:00:17.340Z,23.54
2022-07-31T10:05:08.325Z,23.57
2022-07-31T10:10:00.720Z,23.6
2022-07-31T10:14:53.334Z,23.65
2022-07-31T10:19:45.705Z,23.68
2022-07-31T10:24:38.344Z,23.71
2022-07-31T10:29:32.288Z,23.75
2022-07-31T10:34:23.860Z,23.78
2022-07-31T10:39:16.154Z,23.8
2022-07-31T10:44:09.005Z,23.84
2022-07-31T10:49:01.740Z,23.86
2022-07-31T10:53:55.199Z,23.9
2022-07-31T10:58:47.298Z,23.93
2022-07-31T11:03:40.150Z,23.98
2022-07-31T11:08:32.610Z,24.03
2022-07-31T11:13:33.478Z,24.08
2022-07-31T11:18:23.909Z,24.11
2022-07-31T11:23:10.879Z,24.16
2022-07-31T11:28:03.772Z,24.2
2022-07-31T11:32:56.419Z,24.21
2022-07-31T11:37:56.510Z,24.27
2022-07-31T11:42:41.732Z,24.29
2022-07-31T11:48:10.348Z,24.32
2022-07-31T11:52:30.466Z,24.38
2022-07-31T11:57:19.576Z,24.4
2022-07-31T12:02:11.940Z,24.49
2022-07-31T12:07:04.812Z,24.54
2022-07-31T12:11:57.277Z,24.57
2022-07-31T12:16:49.717Z,24.57
2022-07-31T12:21:47.571Z,24.6
2022-07-31T12:26:35.307Z,24.62
2022-07-31T12:31:28.019Z,24.64
2022-07-31T12:36:20.578Z,24.68
2022-07-31T12:41:12.993Z,24.73
2022-07-31T12:46:05.627Z,24.8
2022-07-31T12:50:57.990Z,24.84
2022-07-31T12:55:50.445Z,24.86
2022-07-31T13:00:43.068Z,24.89
2022-07-31T13:05:35.685Z,24.93
2022-07-31T13:10:31.834Z,24.96
2022-07-31T13:15:22.575Z,24.96
2022-07-31T13:20:14.604Z,25
2022-07-31T13:25:06.470Z,25.03
2022-07-31T13:29:59.073Z,25.05
2022-07-31T13:35:19.952Z,25.04
2022-07-31T13:39:44.144Z,25.08
2022-07-31T13:44:36.841Z,25.1
2022-07-31T13:49:29.646Z,25.12
2022-07-31T13:54:22.044Z,25.14
2022-07-31T13:59:14.521Z,25.18
2022-07-31T14:04:07.084Z,25.2
2022-07-31T14:08:59.855Z,25.22
2022-07-31T14:13:52.392Z,25.25
2022-07-31T14:18:44.847Z,25.25
2022-07-31T14:23:40.576Z,25.26
2022-07-31T14:28:30.031Z,25.28
2022-07-31T14:33:22.426Z,25.28
2022-07-31T14:38:14.967Z,25.3
2022-07-31T14:43:07.735Z,25.29
2022-07-31T14:48:00.370Z,25.32
2022-07-31T14:52:53.178Z,25.34
2022-07-31T14:57:45.789Z,25.37
2022-07-31T15:02:38.564Z,25.36
2022-07-31T15:07:36.574Z,25.4
2022-07-31T15:12:23.745Z,25.42
2022-07-31T15:17:16.351Z,25.42
2022-07-31T15:22:09.710Z,25.45
2022-07-31T15:31:54.236Z,25.44
2022-07-31T15:36:46.946Z,25.44
2022-07-31T15:41:39.320Z,25.44
2022-07-31T15:46:33.873Z,25.42
2022-07-31T15:51:26.051Z,25.44
2022-07-31T15:56:18.815Z,25.43
2022-07-31T16:01:11.187Z,25.46
2022-07-31T16:06:03.711Z,25.44
2022-07-31T16:10:56.330Z,25.43
2022-07-31T16:15:49.140Z,25.44
2022-07-31T16:20:41.695Z,25.44
2022-07-31T16:25:34.857Z,25.47
2022-07-31T16:30:27.065Z,25.48
2022-07-31T16:35:19.738Z,25.47
2022-07-31T16:40:29.515Z,25.46
2022-07-31T16:45:04.937Z,25.47
2022-07-31T16:49:57.202Z,25.48
2022-07-31T16:54:49.624Z,25.47
2022-07-31T16:59:56.743Z,25.47
2022-07-31T17:04:35.169Z,25.49
2022-07-31T17:09:27.650Z,25.48
2022-07-31T17:14:20.978Z,25.48
2022-07-31T17:19:13.543Z,25.46
2022-07-31T17:24:06.077Z,25.45
2022-07-31T17:28:58.245Z,25.47
2022-07-31T17:33:59.853Z,25.45
2022-07-31T17:38:43.353Z,25.45
2022-07-31T17:43:50.300Z,25.45
2022-07-31T17:48:28.312Z,25.42
2022-07-31T17:53:20.770Z,25.4
2022-07-31T17:58:13.293Z,25.37
2022-07-31T18:03:05.772Z,25.31
2022-07-31T18:07:58.572Z,25.31
2022-07-31T18:12:56.672Z,25.32
2022-07-31T18:17:43.581Z,25.35
2022-07-31T18:22:49.945Z,25.34
2022-07-31T18:27:28.813Z,25.29
2022-07-31T18:32:21.536Z,25.28
2022-07-31T18:37:14.274Z,25.28
2022-07-31T18:42:07.293Z,25.35
2022-07-31T18:46:59.702Z,25.32
2022-07-31T18:51:52.345Z,25.3
2022-07-31T18:56:45.043Z,25.34
2022-07-31T19:01:37.442Z,25.3
2022-07-31T19:06:29.937Z,25.33
2022-07-31T19:11:22.404Z,25.29
2022-07-31T19:16:15.750Z,25.31
2022-07-31T19:21:19.318Z,25.31
2022-07-31T19:26:03.295Z,25.27
2022-07-31T19:30:54.973Z,25.31
2022-07-31T19:35:55.648Z,25.3
2022-07-31T19:40:39.248Z,25.27
2022-07-31T19:45:31.660Z,25.28
2022-07-31T19:50:26.164Z,25.27
2022-07-31T19:55:18.195Z,25.28
2022-07-31T20:00:11.043Z,25.3
2022-07-31T20:05:03.577Z,25.3
2022-07-31T20:09:57.264Z,25.28
2022-07-31T20:14:49.685Z,25.3
2022-07-31T20:20:01.560Z,25.31
2022-07-31T20:24:35.140Z,25.33
2022-07-31T20:29:27.450Z,25.26
2022-07-31T20:34:14.087Z,25.28
2022-07-31T20:39:10.820Z,25.24
2022-07-31T20:44:03.630Z,25.23
2022-07-31T20:48:56.337Z,25.23
2022-07-31T20:53:48.755Z,25.25
2022-07-31T20:58:41.542Z,25.22
2022-07-31T21:08:26.852Z,25.16
2022-07-31T21:18:12.091Z,25.16
2022-07-31T21:23:04.827Z,25.2
2022-07-31T21:27:57.622Z,25.19
2022-07-31T21:32:50.216Z,25.18
2022-07-31T21:37:42.753Z,25.2
2022-07-31T21:42:35.606Z,25.2
2022-07-31T21:47:28.002Z,25.15
2022-07-31T21:52:20.421Z,25.18
2022-07-31T21:57:12.984Z,25.23
2022-07-31T22:02:05.497Z,25.23
2022-07-31T22:06:57.916Z,25.16
2022-07-31T22:11:54.904Z,25.18
2022-07-31T22:16:43.070Z,25.19
2022-07-31T22:21:35.578Z,25.12
2022-07-31T22:26:28.230Z,25.15
2022-07-31T22:31:20.869Z,25.15
2022-07-31T22:36:13.831Z,25.12
2022-07-31T22:41:06.457Z,25.13
2022-07-31T22:45:58.916Z,25.09
2022-07-31T22:50:51.621Z,25.12
2022-07-31T22:55:43.898Z,25.08
2022-07-31T23:00:36.768Z,25.09
2022-07-31T23:05:29.379Z,25.06
2022-07-31T23:10:22.045Z,25.07
2022-07-31T23:15:14.447Z,25.03
2022-07-31T23:20:07.061Z,25.06
2022-07-31T23:24:59.656Z,25.06
2022-07-31T23:29:52.149Z,25.03
2022-07-31T23:34:44.982Z,24.96
2022-07-31T23:39:37.668Z,24.99
2022-07-31T23:44:30.386Z,24.97
2022-07-31T23:49:23.049Z,24.95
2022-07-31T23:54:15.236Z,24.91
2022-07-31T23:59:07.759Z,24.91
